sensor_id;sensor_type;location;lat;lon;timestamp;P1;durP1;ratioP1;P2;durP2;ratioP2
31126;SDS011;17775;57.948;12.514;2023-04-24T00:00:32;29.63;;;15.32;;
31126;SDS011;17775;57.948;12.514;2023-04-24T00:02:58;31.38;;;15.57;;
31126;SDS011;17775;57.948;12.514;2023-04-24T00:05:26;33.53;;;16.15;;
31126;SDS011;17775;57.948;12.514;2023-04-24T00:07:52;34.17;;;15.98;;
31126;SDS011;17775;57.948;12.514;2023-04-24T00:10:19;30.40;;;14.60;;
31126;SDS011;17775;57.948;12.514;2023-04-24T00:12:46;28.35;;;13.93;;
31126;SDS011;17775;57.948;12.514;2023-04-24T00:15:12;29.63;;;16.13;;
31126;SDS011;17775;57.948;12.514;2023-04-24T00:17:39;29.17;;;13.80;;
31126;SDS011;17775;57.948;12.514;2023-04-24T00:20:05;31.25;;;14.82;;
31126;SDS011;17775;57.948;12.514;2023-04-24T00:22:33;29.60;;;14.50;;
31126;SDS011;17775;57.948;12.514;2023-04-24T00:24:59;31.05;;;15.30;;
31126;SDS011;17775;57.948;12.514;2023-04-24T00:27:26;30.20;;;14.57;;
31126;SDS011;17775;57.948;12.514;2023-04-24T00:29:52;29.40;;;14.85;;
31126;SDS011;17775;57.948;12.514;2023-04-24T00:32:18;26.70;;;14.93;;
31126;SDS011;17775;57.948;12.514;2023-04-24T00:34:45;29.13;;;13.98;;
31126;SDS011;17775;57.948;12.514;2023-04-24T00:37:12;32.88;;;14.95;;
31126;SDS011;17775;57.948;12.514;2023-04-24T00:39:38;29.98;;;14.65;;
31126;SDS011;17775;57.948;12.514;2023-04-24T00:42:05;34.20;;;15.38;;
31126;SDS011;17775;57.948;12.514;2023-04-24T00:44:32;39.92;;;17.73;;
31126;SDS011;17775;57.948;12.514;2023-04-24T00:46:59;40.80;;;18.55;;
31126;SDS011;17775;57.948;12.514;2023-04-24T00:49:26;41.38;;;18.92;;
31126;SDS011;17775;57.948;12.514;2023-04-24T00:51:53;41.08;;;18.17;;
31126;SDS011;17775;57.948;12.514;2023-04-24T00:54:20;38.50;;;17.23;;
31126;SDS011;17775;57.948;12.514;2023-04-24T00:56:46;42.13;;;16.40;;
31126;SDS011;17775;57.948;12.514;2023-04-24T00:59:13;38.38;;;17.83;;
31126;SDS011;17775;57.948;12.514;2023-04-24T01:01:40;31.90;;;15.90;;
31126;SDS011;17775;57.948;12.514;2023-04-24T01:04:11;30.67;;;15.88;;
31126;SDS011;17775;57.948;12.514;2023-04-24T01:06:38;35.03;;;16.20;;
31126;SDS011;17775;57.948;12.514;2023-04-24T01:09:05;28.73;;;14.43;;
31126;SDS011;17775;57.948;12.514;2023-04-24T01:11:31;32.53;;;15.40;;
31126;SDS011;17775;57.948;12.514;2023-04-24T01:13:58;32.50;;;15.73;;
31126;SDS011;17775;57.948;12.514;2023-04-24T01:16:25;45.70;;;19.63;;
31126;SDS011;17775;57.948;12.514;2023-04-24T01:18:52;42.40;;;18.83;;
31126;SDS011;17775;57.948;12.514;2023-04-24T01:21:18;41.10;;;17.08;;
31126;SDS011;17775;57.948;12.514;2023-04-24T01:23:46;39.45;;;18.80;;
31126;SDS011;17775;57.948;12.514;2023-04-24T01:26:14;38.50;;;18.58;;
31126;SDS011;17775;57.948;12.514;2023-04-24T01:28:43;41.78;;;19.20;;
31126;SDS011;17775;57.948;12.514;2023-04-24T01:31:09;47.63;;;20.20;;
31126;SDS011;17775;57.948;12.514;2023-04-24T01:33:36;40.10;;;18.02;;
31126;SDS011;17775;57.948;12.514;2023-04-24T01:36:02;40.03;;;18.77;;
31126;SDS011;17775;57.948;12.514;2023-04-24T01:38:29;40.13;;;17.13;;
31126;SDS011;17775;57.948;12.514;2023-04-24T01:40:55;36.83;;;17.25;;
31126;SDS011;17775;57.948;12.514;2023-04-24T01:43:21;40.33;;;18.60;;
31126;SDS011;17775;57.948;12.514;2023-04-24T01:45:48;37.95;;;18.17;;
31126;SDS011;17775;57.948;12.514;2023-04-24T01:48:14;43.25;;;18.73;;
31126;SDS011;17775;57.948;12.514;2023-04-24T01:50:41;43.17;;;19.63;;
31126;SDS011;17775;57.948;12.514;2023-04-24T01:53:07;43.70;;;20.48;;
31126;SDS011;17775;57.948;12.514;2023-04-24T01:55:34;37.33;;;19.85;;
31126;SDS011;17775;57.948;12.514;2023-04-24T01:58:00;41.80;;;19.95;;
31126;SDS011;17775;57.948;12.514;2023-04-24T02:00:28;45.42;;;20.52;;
31126;SDS011;17775;57.948;12.514;2023-04-24T02:02:54;43.20;;;20.05;;
31126;SDS011;17775;57.948;12.514;2023-04-24T02:05:21;45.90;;;19.50;;
31126;SDS011;17775;57.948;12.514;2023-04-24T02:07:48;45.35;;;19.73;;
31126;SDS011;17775;57.948;12.514;2023-04-24T02:10:16;42.65;;;19.48;;
31126;SDS011;17775;57.948;12.514;2023-04-24T02:12:42;46.35;;;22.23;;
31126;SDS011;17775;57.948;12.514;2023-04-24T02:15:09;37.88;;;19.38;;
31126;SDS011;17775;57.948;12.514;2023-04-24T02:17:35;40.50;;;19.80;;
31126;SDS011;17775;57.948;12.514;2023-04-24T02:20:02;38.20;;;18.65;;
31126;SDS011;17775;57.948;12.514;2023-04-24T02:22:29;40.45;;;19.70;;
31126;SDS011;17775;57.948;12.514;2023-04-24T02:24:56;38.60;;;18.30;;
31126;SDS011;17775;57.948;12.514;2023-04-24T02:27:23;37.30;;;18.30;;
31126;SDS011;17775;57.948;12.514;2023-04-24T02:29:49;38.38;;;18.48;;
31126;SDS011;17775;57.948;12.514;2023-04-24T02:32:16;35.40;;;17.33;;
31126;SDS011;17775;57.948;12.514;2023-04-24T02:34:42;38.47;;;19.02;;
31126;SDS011;17775;57.948;12.514;2023-04-24T02:37:09;37.03;;;17.88;;
31126;SDS011;17775;57.948;12.514;2023-04-24T02:39:35;42.97;;;18.92;;
31126;SDS011;17775;57.948;12.514;2023-04-24T02:42:02;34.45;;;17.13;;
31126;SDS011;17775;57.948;12.514;2023-04-24T02:44:29;42.95;;;19.25;;
31126;SDS011;17775;57.948;12.514;2023-04-24T02:46:55;37.47;;;18.50;;
31126;SDS011;17775;57.948;12.514;2023-04-24T02:49:22;36.72;;;17.00;;
31126;SDS011;17775;57.948;12.514;2023-04-24T02:51:51;37.95;;;16.80;;
31126;SDS011;17775;57.948;12.514;2023-04-24T02:54:17;41.13;;;18.27;;
31126;SDS011;17775;57.948;12.514;2023-04-24T02:56:44;35.70;;;16.30;;
31126;SDS011;17775;57.948;12.514;2023-04-24T02:59:10;38.85;;;17.02;;
31126;SDS011;17775;57.948;12.514;2023-04-24T03:01:37;35.25;;;17.10;;
31126;SDS011;17775;57.948;12.514;2023-04-24T03:04:03;34.55;;;16.10;;
31126;SDS011;17775;57.948;12.514;2023-04-24T03:06:30;33.70;;;16.50;;
31126;SDS011;17775;57.948;12.514;2023-04-24T03:08:59;36.55;;;16.20;;
31126;SDS011;17775;57.948;12.514;2023-04-24T03:11:27;35.40;;;17.38;;
31126;SDS011;17775;57.948;12.514;2023-04-24T03:13:53;35.95;;;17.90;;
31126;SDS011;17775;57.948;12.514;2023-04-24T03:16:20;45.53;;;19.58;;
31126;SDS011;17775;57.948;12.514;2023-04-24T03:18:47;39.45;;;17.70;;
31126;SDS011;17775;57.948;12.514;2023-04-24T03:21:13;45.28;;;18.02;;
31126;SDS011;17775;57.948;12.514;2023-04-24T03:23:39;42.03;;;18.45;;
31126;SDS011;17775;57.948;12.514;2023-04-24T03:26:06;37.45;;;18.60;;
31126;SDS011;17775;57.948;12.514;2023-04-24T03:28:32;42.88;;;19.45;;
31126;SDS011;17775;57.948;12.514;2023-04-24T03:30:59;43.10;;;20.20;;
31126;SDS011;17775;57.948;12.514;2023-04-24T03:33:26;39.63;;;18.85;;
31126;SDS011;17775;57.948;12.514;2023-04-24T03:35:52;41.85;;;18.58;;
31126;SDS011;17775;57.948;12.514;2023-04-24T03:38:19;47.15;;;20.40;;
31126;SDS011;17775;57.948;12.514;2023-04-24T03:40:45;51.45;;;20.35;;
31126;SDS011;17775;57.948;12.514;2023-04-24T03:43:12;50.88;;;21.13;;
31126;SDS011;17775;57.948;12.514;2023-04-24T03:45:38;40.65;;;18.52;;
31126;SDS011;17775;57.948;12.514;2023-04-24T03:48:04;46.50;;;19.58;;
31126;SDS011;17775;57.948;12.514;2023-04-24T03:50:31;44.97;;;18.85;;
31126;SDS011;17775;57.948;12.514;2023-04-24T03:52:59;42.55;;;18.95;;
31126;SDS011;17775;57.948;12.514;2023-04-24T03:55:26;47.88;;;19.63;;
31126;SDS011;17775;57.948;12.514;2023-04-24T03:57:52;46.38;;;21.15;;
31126;SDS011;17775;57.948;12.514;2023-04-24T04:00:19;44.78;;;19.30;;
31126;SDS011;17775;57.948;12.514;2023-04-24T04:02:47;50.20;;;20.05;;
31126;SDS011;17775;57.948;12.514;2023-04-24T04:05:13;49.95;;;21.38;;
31126;SDS011;17775;57.948;12.514;2023-04-24T04:07:40;44.38;;;20.77;;
31126;SDS011;17775;57.948;12.514;2023-04-24T04:10:06;42.17;;;20.48;;
31126;SDS011;17775;57.948;12.514;2023-04-24T04:12:33;45.75;;;21.17;;
31126;SDS011;17775;57.948;12.514;2023-04-24T04:15:00;44.15;;;19.88;;
31126;SDS011;17775;57.948;12.514;2023-04-24T04:17:27;45.05;;;19.27;;
31126;SDS011;17775;57.948;12.514;2023-04-24T04:19:53;43.63;;;20.20;;
31126;SDS011;17775;57.948;12.514;2023-04-24T04:22:19;41.13;;;20.10;;
31126;SDS011;17775;57.948;12.514;2023-04-24T04:24:46;45.28;;;20.75;;
31126;SDS011;17775;57.948;12.514;2023-04-24T04:27:13;44.80;;;20.88;;
31126;SDS011;17775;57.948;12.514;2023-04-24T04:29:39;42.22;;;21.02;;
31126;SDS011;17775;57.948;12.514;2023-04-24T04:32:09;41.17;;;20.85;;
31126;SDS011;17775;57.948;12.514;2023-04-24T04:34:35;40.33;;;20.48;;
31126;SDS011;17775;57.948;12.514;2023-04-24T04:37:03;36.78;;;18.75;;
31126;SDS011;17775;57.948;12.514;2023-04-24T04:39:30;46.97;;;21.50;;
31126;SDS011;17775;57.948;12.514;2023-04-24T04:41:56;41.28;;;20.10;;
31126;SDS011;17775;57.948;12.514;2023-04-24T04:44:24;38.97;;;19.10;;
31126;SDS011;17775;57.948;12.514;2023-04-24T04:46:53;42.80;;;17.45;;
31126;SDS011;17775;57.948;12.514;2023-04-24T04:49:22;32.30;;;17.52;;
31126;SDS011;17775;57.948;12.514;2023-04-24T04:51:49;36.63;;;17.10;;
31126;SDS011;17775;57.948;12.514;2023-04-24T04:54:17;32.15;;;16.92;;
31126;SDS011;17775;57.948;12.514;2023-04-24T04:56:43;33.50;;;17.27;;
31126;SDS011;17775;57.948;12.514;2023-04-24T04:59:09;30.85;;;16.65;;
31126;SDS011;17775;57.948;12.514;2023-04-24T05:01:37;29.42;;;15.80;;
31126;SDS011;17775;57.948;12.514;2023-04-24T05:04:04;35.83;;;16.70;;
31126;SDS011;17775;57.948;12.514;2023-04-24T05:06:30;31.67;;;16.42;;
31126;SDS011;17775;57.948;12.514;2023-04-24T05:08:59;30.90;;;16.15;;
31126;SDS011;17775;57.948;12.514;2023-04-24T05:11:25;30.60;;;15.55;;
31126;SDS011;17775;57.948;12.514;2023-04-24T05:13:52;27.83;;;15.73;;
31126;SDS011;17775;57.948;12.514;2023-04-24T05:16:18;26.67;;;16.35;;
31126;SDS011;17775;57.948;12.514;2023-04-24T05:18:45;27.73;;;17.23;;
31126;SDS011;17775;57.948;12.514;2023-04-24T05:21:11;30.38;;;15.82;;
31126;SDS011;17775;57.948;12.514;2023-04-24T05:23:38;29.88;;;15.98;;
31126;SDS011;17775;57.948;12.514;2023-04-24T05:26:04;29.27;;;16.58;;
31126;SDS011;17775;57.948;12.514;2023-04-24T05:28:33;29.15;;;16.40;;
31126;SDS011;17775;57.948;12.514;2023-04-24T05:30:59;27.38;;;16.70;;
31126;SDS011;17775;57.948;12.514;2023-04-24T05:33:26;28.15;;;17.80;;
31126;SDS011;17775;57.948;12.514;2023-04-24T05:35:52;27.23;;;15.65;;
31126;SDS011;17775;57.948;12.514;2023-04-24T05:38:19;25.25;;;15.05;;
31126;SDS011;17775;57.948;12.514;2023-04-24T05:40:45;29.20;;;15.60;;
31126;SDS011;17775;57.948;12.514;2023-04-24T05:43:12;30.88;;;16.10;;
31126;SDS011;17775;57.948;12.514;2023-04-24T05:45:39;22.90;;;14.70;;
31126;SDS011;17775;57.948;12.514;2023-04-24T05:48:08;26.70;;;15.63;;
31126;SDS011;17775;57.948;12.514;2023-04-24T05:50:35;23.88;;;14.48;;
31126;SDS011;17775;57.948;12.514;2023-04-24T05:53:02;26.08;;;15.70;;
31126;SDS011;17775;57.948;12.514;2023-04-24T05:55:30;27.58;;;15.00;;
31126;SDS011;17775;57.948;12.514;2023-04-24T05:57:57;28.83;;;16.25;;
31126;SDS011;17775;57.948;12.514;2023-04-24T06:00:24;30.63;;;15.90;;
31126;SDS011;17775;57.948;12.514;2023-04-24T06:02:50;23.33;;;14.32;;
31126;SDS011;17775;57.948;12.514;2023-04-24T06:05:18;25.60;;;14.80;;
31126;SDS011;17775;57.948;12.514;2023-04-24T06:07:45;29.55;;;15.27;;
31126;SDS011;17775;57.948;12.514;2023-04-24T06:10:11;26.55;;;15.73;;
31126;SDS011;17775;57.948;12.514;2023-04-24T06:12:38;29.63;;;16.60;;
31126;SDS011;17775;57.948;12.514;2023-04-24T06:15:04;29.92;;;17.10;;
31126;SDS011;17775;57.948;12.514;2023-04-24T06:17:31;26.80;;;14.80;;
31126;SDS011;17775;57.948;12.514;2023-04-24T06:19:58;26.15;;;16.55;;
31126;SDS011;17775;57.948;12.514;2023-04-24T06:22:25;29.42;;;16.52;;
31126;SDS011;17775;57.948;12.514;2023-04-24T06:24:51;29.27;;;16.75;;
31126;SDS011;17775;57.948;12.514;2023-04-24T06:27:19;30.60;;;16.15;;
31126;SDS011;17775;57.948;12.514;2023-04-24T06:29:45;28.10;;;15.50;;
31126;SDS011;17775;57.948;12.514;2023-04-24T06:32:12;30.23;;;15.88;;
31126;SDS011;17775;57.948;12.514;2023-04-24T06:34:38;21.75;;;13.48;;
31126;SDS011;17775;57.948;12.514;2023-04-24T06:37:05;24.17;;;13.77;;
31126;SDS011;17775;57.948;12.514;2023-04-24T06:39:31;23.45;;;13.63;;
31126;SDS011;17775;57.948;12.514;2023-04-24T06:41:58;23.60;;;12.95;;
31126;SDS011;17775;57.948;12.514;2023-04-24T06:44:24;22.20;;;13.52;;
31126;SDS011;17775;57.948;12.514;2023-04-24T06:46:51;22.70;;;13.77;;
31126;SDS011;17775;57.948;12.514;2023-04-24T06:49:17;22.92;;;13.27;;
31126;SDS011;17775;57.948;12.514;2023-04-24T06:51:44;21.52;;;13.15;;
31126;SDS011;17775;57.948;12.514;2023-04-24T06:54:10;21.08;;;13.55;;
31126;SDS011;17775;57.948;12.514;2023-04-24T06:56:37;22.88;;;13.52;;
31126;SDS011;17775;57.948;12.514;2023-04-24T06:59:03;17.95;;;11.60;;
31126;SDS011;17775;57.948;12.514;2023-04-24T07:01:30;23.23;;;12.60;;
31126;SDS011;17775;57.948;12.514;2023-04-24T07:03:57;18.75;;;12.85;;
31126;SDS011;17775;57.948;12.514;2023-04-24T07:06:24;23.17;;;12.98;;
31126;SDS011;17775;57.948;12.514;2023-04-24T07:08:50;20.52;;;12.95;;
31126;SDS011;17775;57.948;12.514;2023-04-24T07:11:17;18.08;;;11.27;;
31126;SDS011;17775;57.948;12.514;2023-04-24T07:13:43;20.48;;;12.93;;
31126;SDS011;17775;57.948;12.514;2023-04-24T07:16:10;18.63;;;11.20;;
31126;SDS011;17775;57.948;12.514;2023-04-24T07:18:38;18.42;;;11.05;;
31126;SDS011;17775;57.948;12.514;2023-04-24T07:21:06;21.75;;;12.02;;
31126;SDS011;17775;57.948;12.514;2023-04-24T07:23:33;17.38;;;11.73;;
31126;SDS011;17775;57.948;12.514;2023-04-24T07:25:59;16.15;;;10.50;;
31126;SDS011;17775;57.948;12.514;2023-04-24T07:28:26;25.50;;;13.07;;
31126;SDS011;17775;57.948;12.514;2023-04-24T07:30:52;20.58;;;11.77;;
31126;SDS011;17775;57.948;12.514;2023-04-24T07:33:20;20.67;;;11.77;;
31126;SDS011;17775;57.948;12.514;2023-04-24T07:35:47;15.77;;;11.05;;
31126;SDS011;17775;57.948;12.514;2023-04-24T07:38:13;17.38;;;10.60;;
31126;SDS011;17775;57.948;12.514;2023-04-24T07:40:40;15.77;;;10.25;;
31126;SDS011;17775;57.948;12.514;2023-04-24T07:43:06;20.05;;;11.27;;
31126;SDS011;17775;57.948;12.514;2023-04-24T07:45:34;18.77;;;10.50;;
31126;SDS011;17775;57.948;12.514;2023-04-24T07:48:03;16.38;;;10.63;;
31126;SDS011;17775;57.948;12.514;2023-04-24T07:50:30;17.20;;;9.35;;
31126;SDS011;17775;57.948;12.514;2023-04-24T07:52:56;15.32;;;9.23;;
31126;SDS011;17775;57.948;12.514;2023-04-24T07:55:23;17.13;;;9.48;;
31126;SDS011;17775;57.948;12.514;2023-04-24T07:57:53;16.98;;;10.00;;
31126;SDS011;17775;57.948;12.514;2023-04-24T08:00:19;15.50;;;9.10;;
31126;SDS011;17775;57.948;12.514;2023-04-24T08:02:49;14.02;;;8.55;;
31126;SDS011;17775;57.948;12.514;2023-04-24T08:05:16;19.13;;;9.52;;
31126;SDS011;17775;57.948;12.514;2023-04-24T08:07:42;20.08;;;10.68;;
31126;SDS011;17775;57.948;12.514;2023-04-24T08:10:09;15.25;;;8.60;;
31126;SDS011;17775;57.948;12.514;2023-04-24T08:12:36;13.43;;;8.35;;
31126;SDS011;17775;57.948;12.514;2023-04-24T08:15:03;15.00;;;9.80;;
31126;SDS011;17775;57.948;12.514;2023-04-24T08:17:30;16.55;;;9.93;;
31126;SDS011;17775;57.948;12.514;2023-04-24T08:19:59;20.00;;;10.15;;
31126;SDS011;17775;57.948;12.514;2023-04-24T08:22:27;14.75;;;10.05;;
31126;SDS011;17775;57.948;12.514;2023-04-24T08:24:54;16.63;;;10.30;;
31126;SDS011;17775;57.948;12.514;2023-04-24T08:27:22;17.25;;;10.55;;
31126;SDS011;17775;57.948;12.514;2023-04-24T08:29:49;18.92;;;10.48;;
31126;SDS011;17775;57.948;12.514;2023-04-24T08:32:16;18.15;;;10.25;;
31126;SDS011;17775;57.948;12.514;2023-04-24T08:34:42;15.77;;;9.52;;
31126;SDS011;17775;57.948;12.514;2023-04-24T08:37:12;18.27;;;10.05;;
31126;SDS011;17775;57.948;12.514;2023-04-24T08:39:38;17.45;;;10.55;;
31126;SDS011;17775;57.948;12.514;2023-04-24T08:42:05;15.85;;;10.20;;
31126;SDS011;17775;57.948;12.514;2023-04-24T08:44:34;13.63;;;9.48;;
31126;SDS011;17775;57.948;12.514;2023-04-24T08:47:01;17.35;;;10.45;;
31126;SDS011;17775;57.948;12.514;2023-04-24T08:49:28;16.48;;;9.90;;
31126;SDS011;17775;57.948;12.514;2023-04-24T08:51:55;17.40;;;9.60;;
31126;SDS011;17775;57.948;12.514;2023-04-24T08:54:22;14.50;;;9.48;;
31126;SDS011;17775;57.948;12.514;2023-04-24T08:56:48;18.40;;;9.75;;
31126;SDS011;17775;57.948;12.514;2023-04-24T08:59:15;13.73;;;8.95;;
31126;SDS011;17775;57.948;12.514;2023-04-24T09:01:42;18.80;;;9.90;;
31126;SDS011;17775;57.948;12.514;2023-04-24T09:04:09;15.00;;;9.48;;
31126;SDS011;17775;57.948;12.514;2023-04-24T09:06:37;18.65;;;11.10;;
31126;SDS011;17775;57.948;12.514;2023-04-24T09:09:04;15.65;;;10.65;;
31126;SDS011;17775;57.948;12.514;2023-04-24T09:11:33;15.45;;;10.05;;
31126;SDS011;17775;57.948;12.514;2023-04-24T09:14:00;14.65;;;9.32;;
31126;SDS011;17775;57.948;12.514;2023-04-24T09:16:27;13.63;;;8.90;;
31126;SDS011;17775;57.948;12.514;2023-04-24T09:18:55;16.52;;;10.27;;
31126;SDS011;17775;57.948;12.514;2023-04-24T09:21:22;15.43;;;9.52;;
31126;SDS011;17775;57.948;12.514;2023-04-24T09:23:58;19.55;;;10.13;;
31126;SDS011;17775;57.948;12.514;2023-04-24T09:26:25;16.02;;;10.80;;
31126;SDS011;17775;57.948;12.514;2023-04-24T09:28:53;16.27;;;10.73;;
31126;SDS011;17775;57.948;12.514;2023-04-24T09:31:19;20.00;;;10.60;;
31126;SDS011;17775;57.948;12.514;2023-04-24T09:33:58;17.58;;;10.95;;
31126;SDS011;17775;57.948;12.514;2023-04-24T09:36:28;16.05;;;9.88;;
31126;SDS011;17775;57.948;12.514;2023-04-24T09:38:58;18.90;;;11.30;;
31126;SDS011;17775;57.948;12.514;2023-04-24T09:41:25;17.98;;;10.48;;
31126;SDS011;17775;57.948;12.514;2023-04-24T09:43:53;15.68;;;10.25;;
31126;SDS011;17775;57.948;12.514;2023-04-24T09:46:19;17.88;;;10.68;;
31126;SDS011;17775;57.948;12.514;2023-04-24T09:48:50;19.15;;;11.10;;
31126;SDS011;17775;57.948;12.514;2023-04-24T09:51:18;16.52;;;9.93;;
31126;SDS011;17775;57.948;12.514;2023-04-24T09:53:58;15.87;;;9.63;;
31126;SDS011;17775;57.948;12.514;2023-04-24T09:56:25;16.50;;;9.98;;
31126;SDS011;17775;57.948;12.514;2023-04-24T09:58:52;17.42;;;10.05;;
31126;SDS011;17775;57.948;12.514;2023-04-24T10:01:31;17.60;;;10.27;;
31126;SDS011;17775;57.948;12.514;2023-04-24T10:03:58;18.73;;;10.52;;
31126;SDS011;17775;57.948;12.514;2023-04-24T10:06:34;17.05;;;10.15;;
31126;SDS011;17775;57.948;12.514;2023-04-24T10:09:01;18.55;;;11.30;;
31126;SDS011;17775;57.948;12.514;2023-04-24T10:11:27;17.63;;;11.63;;
31126;SDS011;17775;57.948;12.514;2023-04-24T10:13:54;16.00;;;10.05;;
31126;SDS011;17775;57.948;12.514;2023-04-24T10:16:22;16.15;;;10.70;;
31126;SDS011;17775;57.948;12.514;2023-04-24T10:18:48;16.70;;;9.82;;
31126;SDS011;17775;57.948;12.514;2023-04-24T10:21:16;15.50;;;9.45;;
31126;SDS011;17775;57.948;12.514;2023-04-24T10:23:43;16.10;;;10.25;;
31126;SDS011;17775;57.948;12.514;2023-04-24T10:26:09;16.13;;;10.13;;
31126;SDS011;17775;57.948;12.514;2023-04-24T10:28:36;15.73;;;9.35;;
31126;SDS011;17775;57.948;12.514;2023-04-24T10:31:03;14.93;;;9.45;;
31126;SDS011;17775;57.948;12.514;2023-04-24T10:33:29;14.30;;;9.88;;
31126;SDS011;17775;57.948;12.514;2023-04-24T10:35:56;20.88;;;9.98;;
31126;SDS011;17775;57.948;12.514;2023-04-24T10:38:25;16.23;;;10.25;;
31126;SDS011;17775;57.948;12.514;2023-04-24T10:40:57;14.00;;;8.73;;
31126;SDS011;17775;57.948;12.514;2023-04-24T10:43:23;13.45;;;9.30;;
31126;SDS011;17775;57.948;12.514;2023-04-24T10:46:03;13.70;;;9.60;;
31126;SDS011;17775;57.948;12.514;2023-04-24T10:48:29;12.02;;;8.25;;
31126;SDS011;17775;57.948;12.514;2023-04-24T10:50:56;11.43;;;7.80;;
31126;SDS011;17775;57.948;12.514;2023-04-24T10:53:25;15.73;;;8.30;;
31126;SDS011;17775;57.948;12.514;2023-04-24T10:58:23;9.40;;;6.65;;
31126;SDS011;17775;57.948;12.514;2023-04-24T11:00:56;8.85;;;5.88;;
31126;SDS011;17775;57.948;12.514;2023-04-24T11:03:24;12.63;;;6.88;;
31126;SDS011;17775;57.948;12.514;2023-04-24T11:05:58;9.82;;;6.45;;
31126;SDS011;17775;57.948;12.514;2023-04-24T11:08:38;9.55;;;5.72;;
31126;SDS011;17775;57.948;12.514;2023-04-24T11:11:12;9.27;;;6.33;;
31126;SDS011;17775;57.948;12.514;2023-04-24T11:16:21;9.13;;;6.22;;
31126;SDS011;17775;57.948;12.514;2023-04-24T11:21:20;10.75;;;5.50;;
31126;SDS011;17775;57.948;12.514;2023-04-24T11:23:48;9.50;;;5.80;;
31126;SDS011;17775;57.948;12.514;2023-04-24T11:26:18;9.02;;;5.25;;
31126;SDS011;17775;57.948;12.514;2023-04-24T11:28:48;9.35;;;6.10;;
31126;SDS011;17775;57.948;12.514;2023-04-24T11:34:12;8.93;;;5.88;;
31126;SDS011;17775;57.948;12.514;2023-04-24T11:36:42;6.55;;;4.70;;
31126;SDS011;17775;57.948;12.514;2023-04-24T11:39:11;7.22;;;4.75;;
31126;SDS011;17775;57.948;12.514;2023-04-24T11:41:38;7.40;;;3.55;;
31126;SDS011;17775;57.948;12.514;2023-04-24T11:44:08;5.28;;;3.75;;
31126;SDS011;17775;57.948;12.514;2023-04-24T11:46:34;5.25;;;3.90;;
31126;SDS011;17775;57.948;12.514;2023-04-24T11:49:02;4.65;;;3.60;;
31126;SDS011;17775;57.948;12.514;2023-04-24T11:51:28;5.30;;;3.92;;
31126;SDS011;17775;57.948;12.514;2023-04-24T11:54:02;4.70;;;3.58;;
31126;SDS011;17775;57.948;12.514;2023-04-24T11:56:29;4.85;;;3.38;;
31126;SDS011;17775;57.948;12.514;2023-04-24T11:58:56;4.88;;;3.50;;
31126;SDS011;17775;57.948;12.514;2023-04-24T12:01:22;5.07;;;3.20;;
31126;SDS011;17775;57.948;12.514;2023-04-24T12:03:50;5.72;;;2.88;;
31126;SDS011;17775;57.948;12.514;2023-04-24T12:06:17;4.43;;;3.05;;
31126;SDS011;17775;57.948;12.514;2023-04-24T12:08:45;4.07;;;3.00;;
31126;SDS011;17775;57.948;12.514;2023-04-24T12:11:14;4.60;;;3.03;;
31126;SDS011;17775;57.948;12.514;2023-04-24T12:13:40;3.70;;;2.63;;
31126;SDS011;17775;57.948;12.514;2023-04-24T12:16:07;3.65;;;2.78;;
31126;SDS011;17775;57.948;12.514;2023-04-24T12:18:33;4.45;;;3.10;;
31126;SDS011;17775;57.948;12.514;2023-04-24T12:21:22;4.38;;;3.00;;
31126;SDS011;17775;57.948;12.514;2023-04-24T12:23:48;7.45;;;3.63;;
31126;SDS011;17775;57.948;12.514;2023-04-24T12:26:18;2.83;;;2.55;;
31126;SDS011;17775;57.948;12.514;2023-04-24T12:28:48;4.05;;;2.88;;
31126;SDS011;17775;57.948;12.514;2023-04-24T12:31:16;4.60;;;2.80;;
31126;SDS011;17775;57.948;12.514;2023-04-24T12:33:42;6.18;;;3.08;;
31126;SDS011;17775;57.948;12.514;2023-04-24T12:36:10;3.97;;;2.80;;
31126;SDS011;17775;57.948;12.514;2023-04-24T12:38:36;4.72;;;3.42;;
31126;SDS011;17775;57.948;12.514;2023-04-24T12:41:07;5.80;;;3.00;;
31126;SDS011;17775;57.948;12.514;2023-04-24T12:43:34;5.18;;;2.72;;
31126;SDS011;17775;57.948;12.514;2023-04-24T12:46:00;3.58;;;2.70;;
31126;SDS011;17775;57.948;12.514;2023-04-24T12:48:28;4.82;;;2.60;;
31126;SDS011;17775;57.948;12.514;2023-04-24T12:50:54;3.25;;;2.90;;
31126;SDS011;17775;57.948;12.514;2023-04-24T12:53:22;5.03;;;2.67;;
31126;SDS011;17775;57.948;12.514;2023-04-24T12:55:49;4.85;;;3.00;;
31126;SDS011;17775;57.948;12.514;2023-04-24T12:58:19;3.30;;;2.58;;
31126;SDS011;17775;57.948;12.514;2023-04-24T13:00:46;3.78;;;2.13;;
31126;SDS011;17775;57.948;12.514;2023-04-24T13:03:15;3.67;;;2.97;;
31126;SDS011;17775;57.948;12.514;2023-04-24T13:05:42;4.05;;;2.88;;
31126;SDS011;17775;57.948;12.514;2023-04-24T13:08:09;3.15;;;2.50;;
31126;SDS011;17775;57.948;12.514;2023-04-24T13:10:36;4.00;;;2.45;;
31126;SDS011;17775;57.948;12.514;2023-04-24T13:13:02;5.90;;;2.60;;
31126;SDS011;17775;57.948;12.514;2023-04-24T13:15:29;2.88;;;2.17;;
31126;SDS011;17775;57.948;12.514;2023-04-24T13:17:55;3.67;;;2.25;;
31126;SDS011;17775;57.948;12.514;2023-04-24T13:20:22;3.53;;;2.60;;
31126;SDS011;17775;57.948;12.514;2023-04-24T13:22:48;3.63;;;2.35;;
31126;SDS011;17775;57.948;12.514;2023-04-24T13:25:15;4.53;;;2.50;;
31126;SDS011;17775;57.948;12.514;2023-04-24T13:27:43;4.00;;;2.55;;
31126;SDS011;17775;57.948;12.514;2023-04-24T13:30:09;4.82;;;2.22;;
31126;SDS011;17775;57.948;12.514;2023-04-24T13:32:36;4.35;;;2.78;;
31126;SDS011;17775;57.948;12.514;2023-04-24T13:35:03;4.57;;;2.17;;
31126;SDS011;17775;57.948;12.514;2023-04-24T13:37:30;4.13;;;2.40;;
31126;SDS011;17775;57.948;12.514;2023-04-24T13:39:56;5.00;;;2.63;;
31126;SDS011;17775;57.948;12.514;2023-04-24T13:42:22;4.25;;;2.70;;
31126;SDS011;17775;57.948;12.514;2023-04-24T13:44:49;4.55;;;2.40;;
31126;SDS011;17775;57.948;12.514;2023-04-24T13:47:17;3.55;;;2.40;;
31126;SDS011;17775;57.948;12.514;2023-04-24T13:49:43;4.18;;;2.63;;
31126;SDS011;17775;57.948;12.514;2023-04-24T13:52:10;3.92;;;2.72;;
31126;SDS011;17775;57.948;12.514;2023-04-24T13:54:36;3.17;;;2.40;;
31126;SDS011;17775;57.948;12.514;2023-04-24T13:57:03;3.50;;;2.33;;
31126;SDS011;17775;57.948;12.514;2023-04-24T13:59:29;6.38;;;2.85;;
31126;SDS011;17775;57.948;12.514;2023-04-24T14:01:56;5.95;;;3.00;;
31126;SDS011;17775;57.948;12.514;2023-04-24T14:04:22;4.20;;;2.55;;
31126;SDS011;17775;57.948;12.514;2023-04-24T14:06:49;2.90;;;2.45;;
31126;SDS011;17775;57.948;12.514;2023-04-24T14:09:16;3.53;;;2.13;;
31126;SDS011;17775;57.948;12.514;2023-04-24T14:11:43;3.42;;;2.63;;
31126;SDS011;17775;57.948;12.514;2023-04-24T14:14:10;4.15;;;2.08;;
31126;SDS011;17775;57.948;12.514;2023-04-24T14:16:36;3.60;;;2.42;;
31126;SDS011;17775;57.948;12.514;2023-04-24T14:19:03;4.80;;;2.38;;
31126;SDS011;17775;57.948;12.514;2023-04-24T14:21:31;4.75;;;2.47;;
31126;SDS011;17775;57.948;12.514;2023-04-24T14:23:57;3.40;;;2.47;;
31126;SDS011;17775;57.948;12.514;2023-04-24T14:26:23;3.17;;;2.15;;